Time;durP1;ratioP1;P1;durP2;ratioP2;P2;SDS_P1;SDS_P2;PMS_P1;PMS_P2;Temp;Humidity;BMP_temperature;BMP_pressure;BME280_temperature;BME280_humidity;BME280_pressure;Samples;Min_cycle;Max_cycle;Signal;HPM_P1;HPM_P2
2022/03/03 00:02:04;;;;;;;15.57;5.78;;;4.30;73.60;;;4.13;51.29;101406.28;5312246;23;20057;-71
2022/03/03 00:04:36;;;;;;;13.68;6.30;;;4.30;74.70;;;4.07;51.52;101409.31;5196420;28;20156;-70
2022/03/03 00:07:08;;;;;;;13.50;6.28;;;4.20;74.30;;;4.05;51.18;101415.16;5196356;28;20057;-71
2022/03/03 00:09:40;;;;;;;14.98;6.50;;;4.20;74.40;;;4.02;51.69;101414.94;5188432;28;20050;-71
2022/03/03 00:12:13;;;;;;;13.80;6.13;;;4.20;75.50;;;3.97;51.34;101412.00;5182740;28;20038;-71
2022/03/03 00:14:45;;;;;;;12.35;5.93;;;4.10;74.70;;;3.91;51.19;101411.59;5182681;28;20150;-71
2022/03/03 00:17:17;;;;;;;12.32;5.82;;;4.10;74.40;;;3.91;51.60;101410.69;5183031;28;20491;-71
2022/03/03 00:19:49;;;;;;;14.55;5.93;;;4.10;74.80;;;3.92;51.08;101412.50;5183981;28;20046;-71
2022/03/03 00:22:21;;;;;;;11.48;5.63;;;4.10;74.60;;;3.93;51.45;101404.88;5184770;28;20050;-71
2022/03/03 00:24:53;;;;;;;11.82;5.88;;;4.10;75.30;;;3.95;51.72;101405.84;5184819;28;20050;-70
2022/03/03 00:27:27;;;;;;;14.45;7.18;;;4.10;75.90;;;3.95;51.74;101399.81;5183719;28;20053;-71
2022/03/03 00:29:59;;;;;;;14.45;5.70;;;4.10;76.00;;;3.91;52.04;101406.44;5183779;28;20049;-71
2022/03/03 00:32:31;;;;;;;14.05;5.35;;;4.10;76.80;;;3.87;52.44;101401.84;5184113;28;20054;-71
2022/03/03 00:35:03;;;;;;;20.00;6.68;;;4.00;77.40;;;3.83;52.17;101402.41;5184273;28;20426;-70
2022/03/03 00:37:35;;;;;;;13.65;5.72;;;4.00;77.10;;;3.81;52.38;101396.25;5183518;28;20053;-71
2022/03/03 00:40:10;;;;;;;14.65;6.00;;;4.00;77.60;;;3.78;52.61;101388.28;5183802;28;20060;-71
2022/03/03 00:42:43;;;;;;;13.48;5.63;;;3.90;78.80;;;3.76;52.80;101392.44;5183611;28;20514;-71
2022/03/03 00:45:15;;;;;;;13.45;6.03;;;3.90;78.70;;;3.74;52.47;101401.75;5187088;28;20050;-71
2022/03/03 00:47:47;;;;;;;15.75;5.90;;;3.90;78.50;;;3.69;52.55;101403.09;5204017;28;20050;-71
2022/03/03 00:50:20;;;;;;;14.27;5.78;;;3.80;79.20;;;3.63;52.53;101394.94;5204370;28;20059;-71
2022/03/03 00:52:51;;;;;;;15.90;6.07;;;3.80;79.40;;;3.58;52.96;101393.69;5204636;28;20045;-71
2022/03/03 00:55:24;;;;;;;12.48;6.22;;;3.70;79.80;;;3.54;53.49;101401.22;5204262;28;20418;-70
2022/03/03 00:57:57;;;;;;;14.75;7.28;;;3.70;80.90;;;3.48;52.95;101397.31;5204051;28;20472;-71
2022/03/03 01:00:30;;;;;;;14.80;6.72;;;3.70;80.20;;;3.45;53.46;101400.53;5204483;28;20433;-70
2022/03/03 01:03:02;;;;;;;16.90;6.93;;;3.60;81.20;;;3.43;53.57;101396.97;5203898;28;20069;-71
2022/03/03 01:05:33;;;;;;;14.00;6.25;;;3.60;81.50;;;3.43;52.99;101399.53;5204248;28;20055;-72
2022/03/03 01:08:10;;;;;;;13.02;5.82;;;3.60;80.80;;;3.44;52.98;101390.13;5203987;28;20054;-71
2022/03/03 01:10:42;;;;;;;14.10;6.18;;;3.60;80.10;;;3.45;52.93;101397.06;5204330;28;20053;-70
2022/03/03 01:13:16;;;;;;;14.32;6.35;;;3.60;81.30;;;3.45;53.69;101397.06;5204278;28;20053;-70
2022/03/03 01:15:48;;;;;;;22.17;6.57;;;3.60;82.40;;;3.42;53.53;101397.75;5204075;28;20053;-71
2022/03/03 01:18:21;;;;;;;15.35;6.47;;;3.60;82.10;;;3.40;54.02;101401.00;5203517;28;20068;-70
2022/03/03 01:20:54;;;;;;;13.45;5.97;;;3.60;83.50;;;3.35;54.07;101390.38;5203996;28;20049;-70
2022/03/03 01:23:26;;;;;;;15.27;6.32;;;3.50;84.00;;;3.31;54.51;101388.34;5204182;28;20140;-71
2022/03/03 01:25:58;;;;;;;15.38;6.35;;;3.50;84.30;;;3.24;54.22;101380.94;5204365;28;20056;-71
2022/03/03 01:28:31;;;;;;;13.40;6.35;;;3.50;84.80;;;3.21;54.36;101385.88;5207338;28;20056;-71
2022/03/03 01:31:04;;;;;;;15.60;6.55;;;3.40;84.40;;;3.18;53.74;101370.19;5208141;28;20487;-70
2022/03/03 01:33:36;;;;;;;12.77;6.00;;;3.40;84.00;;;3.19;54.34;101377.13;5208004;28;20050;-71
2022/03/03 01:36:08;;;;;;;13.80;6.28;;;3.40;84.40;;;3.18;53.77;101375.34;5208303;28;20045;-71
2022/03/03 01:38:40;;;;;;;14.77;5.68;;;3.40;83.80;;;3.20;53.88;101377.25;5207459;28;20045;-71
2022/03/03 01:41:12;;;;;;;13.77;6.97;;;3.40;83.40;;;3.24;54.05;101375.78;5207631;28;20387;-70
2022/03/03 01:43:46;;;;;;;11.80;5.60;;;3.50;84.30;;;3.25;53.59;101362.13;5208020;28;20045;-70
2022/03/03 01:46:18;;;;;;;14.57;6.07;;;3.50;83.90;;;3.24;53.50;101363.78;5207664;28;20056;-72
2022/03/03 01:48:50;;;;;;;16.30;6.03;;;3.40;83.80;;;3.23;53.56;101361.13;5207729;28;20049;-72
2022/03/03 01:51:22;;;;;;;15.60;6.40;;;3.40;84.20;;;3.19;53.75;101356.50;5207290;28;20049;-71
2022/03/03 01:53:54;;;;;;;13.35;6.80;;;3.40;84.60;;;3.19;53.69;101357.41;5207835;28;20052;-71
2022/03/03 01:56:26;;;;;;;13.60;5.85;;;3.40;85.00;;;3.20;53.95;101348.91;5207502;28;20513;-71
2022/03/03 01:59:00;;;;;;;14.02;5.80;;;3.40;84.30;;;3.20;53.61;101358.34;5207268;28;20051;-70
2022/03/03 02:01:32;;;;;;;16.73;7.00;;;3.40;84.40;;;3.18;53.92;101349.56;5207011;28;20406;-70
2022/03/03 02:04:07;;;;;;;13.55;5.82;;;3.40;85.60;;;3.13;54.27;101341.53;5207391;28;20167;-70
2022/03/03 02:06:40;;;;;;;13.82;5.68;;;3.40;86.30;;;3.11;54.79;101342.19;5207466;28;20053;-70
2022/03/03 02:09:12;;;;;;;12.82;5.70;;;3.30;88.20;;;3.03;54.99;101343.31;5207078;28;20057;-71
2022/03/03 02:11:47;;;;;;;13.25;5.63;;;3.20;88.00;;;2.93;55.79;101339.16;5207134;28;20056;-70
2022/03/03 02:14:20;;;;;;;11.95;6.07;;;3.20;89.40;;;2.87;55.74;101347.34;5207098;28;20037;-71
2022/03/03 02:16:52;;;;;;;15.00;6.40;;;3.10;89.50;;;2.82;55.79;101343.53;5206999;28;20056;-71
2022/03/03 02:19:24;;;;;;;18.10;6.32;;;3.10;90.00;;;2.75;56.34;101341.28;5206943;28;20053;-70
2022/03/03 02:21:57;;;;;;;13.88;5.90;;;3.00;90.80;;;2.67;57.10;101345.88;5207222;28;20053;-70
2022/03/03 02:24:30;;;;;;;14.70;7.10;;;2.90;91.30;;;2.60;57.42;101345.25;5206934;28;20055;-71
2022/03/03 02:27:03;;;;;;;13.90;6.85;;;2.80;91.80;;;2.53;57.70;101337.84;5206486;28;20324;-71
2022/03/03 02:29:36;;;;;;;15.90;6.40;;;2.80;92.50;;;2.43;58.14;101342.31;5207126;28;20050;-72
2022/03/03 02:32:09;;;;;;;14.35;6.40;;;2.70;92.90;;;2.37;58.15;101336.72;5206685;28;20505;-70
2022/03/03 02:34:48;;;;;;;16.77;6.03;;;2.60;93.30;;;2.33;58.22;101334.69;5206751;28;20049;-70
2022/03/03 02:37:22;;;;;;;13.52;6.28;;;2.60;93.80;;;2.31;59.09;101332.78;5205932;28;20111;-70
2022/03/03 02:39:54;;;;;;;17.17;7.45;;;2.50;94.00;;;2.30;58.66;101333.56;5206876;28;20489;-70
2022/03/03 02:42:26;;;;;;;14.38;6.38;;;2.50;94.50;;;2.30;58.57;101331.88;5206426;28;20045;-71
2022/03/03 02:44:58;;;;;;;14.93;6.28;;;2.50;94.40;;;2.31;59.04;101336.25;5206400;28;20050;-71
2022/03/03 02:47:31;;;;;;;15.02;6.60;;;2.50;94.30;;;2.34;59.00;101315.88;5206243;28;20049;-71
2022/03/03 02:50:03;;;;;;;14.95;6.53;;;2.50;94.30;;;2.34;58.43;101321.03;5206445;28;20517;-70
2022/03/03 02:52:37;;;;;;;16.35;7.43;;;2.60;94.00;;;2.37;58.08;101317.81;5206552;28;20403;-71
2022/03/03 02:55:10;;;;;;;16.75;6.68;;;2.60;94.00;;;2.34;58.81;101326.16;5206355;28;20050;-71
2022/03/03 02:57:54;;;;;;;14.50;6.88;;;2.60;94.40;;;2.30;58.83;101326.75;5206079;28;20472;-71
2022/03/03 03:00:29;;;;;;;15.10;6.45;;;2.60;95.00;;;2.21;59.56;101323.44;5205994;28;20061;-70
2022/03/03 03:03:01;;;;;;;15.10;6.50;;;2.50;95.50;;;2.15;59.66;101322.97;5206376;28;20067;-70
2022/03/03 03:05:33;;;;;;;14.40;6.38;;;2.40;95.60;;;2.09;59.83;101317.38;5205990;28;20049;-71
2022/03/03 03:08:07;;;;;;;15.80;7.00;;;2.40;96.10;;;2.07;59.98;101308.63;5206026;28;20053;-71
2022/03/03 03:10:40;;;;;;;14.18;6.35;;;2.30;96.00;;;2.06;60.25;101304.28;5205667;28;20049;-70
2022/03/03 03:13:14;;;;;;;14.50;6.20;;;2.30;96.30;;;2.05;59.90;101307.63;5206149;28;20501;-70
2022/03/03 03:15:47;;;;;;;17.23;6.95;;;2.30;96.30;;;2.00;60.10;101312.41;5205938;28;20482;-71
2022/03/03 03:18:21;;;;;;;14.80;6.80;;;2.30;96.60;;;1.94;60.74;101314.50;5205883;28;20049;-71
2022/03/03 03:20:54;;;;;;;21.20;6.95;;;2.30;97.10;;;1.87;61.26;101318.28;5205706;28;20065;-71
2022/03/03 03:23:27;;;;;;;17.67;7.07;;;2.20;97.40;;;1.81;61.14;101320.38;5205808;28;20056;-70
2022/03/03 03:25:59;;;;;;;16.35;7.00;;;2.10;97.50;;;1.72;61.88;101329.94;5205871;28;20049;-71
2022/03/03 03:28:31;;;;;;;15.65;6.53;;;2.00;98.10;;;1.67;62.17;101331.25;5205779;28;20100;-72
2022/03/03 03:31:03;;;;;;;18.65;6.78;;;2.00;98.50;;;1.64;62.30;101318.19;5205868;28;20056;-71
2022/03/03 03:33:35;;;;;;;18.63;6.20;;;2.00;98.30;;;1.62;61.91;101318.03;5205462;28;20053;-71
2022/03/03 03:36:07;;;;;;;13.82;6.47;;;1.90;98.40;;;1.58;62.19;101315.13;5205513;28;20049;-71
2022/03/03 03:38:41;;;;;;;14.55;6.07;;;1.80;98.70;;;1.53;62.49;101316.44;5205475;28;20079;-71
2022/03/03 03:41:13;;;;;;;18.35;6.40;;;1.80;98.90;;;1.50;62.93;101316.19;5205602;28;20486;-71
2022/03/03 03:43:45;;;;;;;14.23;5.70;;;1.80;99.20;;;1.48;62.97;101316.06;5205715;28;20053;-70
2022/03/03 03:46:17;;;;;;;13.93;6.05;;;1.70;99.30;;;1.46;62.85;101314.16;5205500;28;20048;-71
2022/03/03 03:48:49;;;;;;;13.90;6.18;;;1.80;99.10;;;1.45;62.56;101307.22;5205011;28;20067;-71
2022/03/03 03:51:21;;;;;;;17.05;6.35;;;1.70;99.30;;;1.44;63.36;101315.72;5205386;28;20057;-71
2022/03/03 03:53:54;;;;;;;14.57;6.07;;;1.70;99.20;;;1.45;62.58;101302.09;5205374;28;20056;-70
2022/03/03 03:56:26;;;;;;;16.00;6.28;;;1.70;98.70;;;1.48;62.18;101303.22;5204974;28;20076;-71
2022/03/03 03:58:58;;;;;;;13.15;5.22;;;1.80;98.50;;;1.48;61.62;101303.22;5205231;28;20045;-71
2022/03/03 04:01:31;;;;;;;15.65;6.20;;;1.80;98.30;;;1.50;61.82;101304.25;5205324;28;20046;-71
2022/03/03 04:04:03;;;;;;;17.02;6.53;;;1.80;98.10;;;1.55;61.36;101289.19;5205272;28;20056;-71
2022/03/03 04:06:36;;;;;;;14.68;6.35;;;1.80;98.10;;;1.60;60.96;101299.03;5205209;28;20190;-70
2022/03/03 04:09:09;;;;;;;15.38;6.47;;;1.90;97.60;;;1.66;60.86;101288.34;5205075;28;20123;-70
2022/03/03 04:11:41;;;;;;;14.60;5.55;;;1.90;97.30;;;1.68;60.86;101286.78;5205305;28;20050;-72
2022/03/03 04:14:13;;;;;;;13.25;5.32;;;2.00;97.00;;;1.74;60.21;101292.41;5205066;28;20049;-71
2022/03/03 04:16:45;;;;;;;14.57;6.20;;;2.00;96.80;;;1.77;59.73;101287.53;5205349;28;20053;-70
2022/03/03 04:19:17;;;;;;;12.68;7.20;;;2.10;96.60;;;1.78;59.90;101283.28;5204770;28;20402;-71
2022/03/03 04:21:49;;;;;;;18.95;8.85;;;2.10;96.50;;;1.79;60.30;101285.94;5205261;28;20490;-71
2022/03/03 04:24:23;;;;;;;24.13;10.02;;;2.10;96.30;;;1.80;59.87;101286.84;5205413;28;20045;-71
2022/03/03 04:26:56;;;;;;;18.73;6.68;;;2.10;95.90;;;1.77;59.16;101282.38;5204835;28;20100;-71
2022/03/03 04:29:28;;;;;;;13.63;5.90;;;2.10;95.90;;;1.73;59.06;101274.31;5205065;28;20136;-71
2022/03/03 04:32:00;;;;;;;11.68;5.63;;;2.10;95.30;;;1.72;59.32;101282.78;5204955;28;20046;-71
2022/03/03 04:34:32;;;;;;;10.75;4.72;;;2.10;95.20;;;1.74;59.08;101271.84;5204874;28;20046;-71
2022/03/03 04:37:04;;;;;;;14.05;5.60;;;2.20;95.10;;;1.78;58.51;101262.72;5204821;28;20513;-71
2022/03/03 04:39:38;;;;;;;15.73;6.43;;;2.20;94.90;;;1.81;58.98;101268.06;5204926;28;20049;-71
2022/03/03 04:42:10;;;;;;;15.05;5.50;;;2.20;94.80;;;1.82;58.53;101270.75;5204636;28;20052;-71
2022/03/03 04:44:42;;;;;;;12.90;6.28;;;2.20;94.80;;;1.84;58.22;101270.91;5204693;28;20049;-71
2022/03/03 04:47:14;;;;;;;14.13;6.38;;;2.20;94.60;;;1.84;58.69;101266.66;5204635;28;20072;-71
2022/03/03 04:49:46;;;;;;;13.57;5.40;;;2.20;94.40;;;1.87;58.76;101269.44;5204966;28;20498;-71
2022/03/03 04:52:18;;;;;;;14.73;5.55;;;2.20;94.50;;;1.92;58.39;101266.34;5204673;28;20048;-70
2022/03/03 04:54:51;;;;;;;12.90;5.80;;;2.20;94.50;;;1.91;57.98;101257.72;5204804;28;20049;-72
2022/03/03 04:57:23;;;;;;;14.45;5.90;;;2.30;94.30;;;1.89;57.63;101265.34;5204617;28;20053;-71
2022/03/03 04:59:55;;;;;;;13.95;5.72;;;2.20;94.10;;;1.86;57.84;101257.38;5205137;28;20145;-71
2022/03/03 05:02:27;;;;;;;15.55;6.43;;;2.20;93.90;;;1.84;57.57;101258.03;5208428;28;20053;-71
2022/03/03 05:04:59;;;;;;;14.98;5.75;;;2.20;93.80;;;1.85;58.13;101254.69;5208420;28;20053;-71
2022/03/03 05:07:31;;;;;;;13.90;5.72;;;2.20;94.10;;;1.84;58.50;101240.94;5207967;28;20053;-71
2022/03/03 05:10:06;;;;;;;12.80;5.65;;;2.20;94.40;;;1.82;58.43;101251.84;5208560;28;20049;-70
2022/03/03 05:12:38;;;;;;;13.43;6.40;;;2.10;94.90;;;1.76;58.81;101253.97;5208299;28;20045;-71
2022/03/03 05:15:11;;;;;;;11.05;5.15;;;2.10;95.10;;;1.70;59.27;101254.41;5208351;28;20052;-70
2022/03/03 05:17:43;;;;;;;13.25;5.38;;;2.00;95.50;;;1.62;60.06;101250.31;5207881;28;20141;-71
2022/03/03 05:20:15;;;;;;;15.27;7.50;;;2.00;96.10;;;1.53;60.33;101240.25;5208117;28;20058;-70
2022/03/03 05:22:47;;;;;;;16.00;5.85;;;1.90;96.40;;;1.48;60.84;101241.56;5208187;28;20056;-71
2022/03/03 05:25:20;;;;;;;12.52;5.18;;;1.80;96.90;;;1.43;60.84;101247.09;5208377;28;20052;-71
2022/03/03 05:27:52;;;;;;;12.05;5.22;;;1.80;97.20;;;1.36;61.55;101251.75;5208005;28;20045;-71
2022/03/03 05:30:24;;;;;;;12.48;6.38;;;1.70;97.60;;;1.28;61.92;101252.84;5207872;28;20056;-71
2022/03/03 05:32:57;;;;;;;13.32;5.55;;;1.60;98.40;;;1.20;62.08;101247.88;5208536;28;20056;-71
2022/03/03 05:35:29;;;;;;;12.65;7.00;;;1.60;98.80;;;1.14;63.03;101247.38;5208067;28;20103;-70
2022/03/03 05:38:01;;;;;;;15.98;6.55;;;1.50;99.10;;;1.10;63.37;101246.25;5207992;28;20500;-70
2022/03/03 05:40:34;;;;;;;16.60;5.97;;;1.40;99.60;;;1.04;63.87;101248.31;5208013;28;20045;-71
2022/03/03 05:43:09;;;;;;;15.30;6.55;;;1.40;99.90;;;1.02;64.41;101253.34;5207736;28;20052;-71
2022/03/03 05:45:41;;;;;;;14.00;7.07;;;1.30;99.90;;;1.00;64.08;101249.75;5207826;28;20390;-70
2022/03/03 05:48:16;;;;;;;18.15;7.47;;;1.40;99.90;;;1.03;63.78;101256.78;5207491;28;20406;-71
2022/03/03 05:50:50;;;;;;;14.48;5.85;;;1.40;99.70;;;1.03;63.56;101249.09;5207721;28;20053;-71
2022/03/03 05:53:22;;;;;;;14.07;6.43;;;1.30;99.40;;;1.05;63.23;101242.44;5207495;28;20061;-71
2022/03/03 05:55:59;;;;;;;13.60;6.07;;;1.40;99.40;;;1.06;62.96;101239.97;5207949;28;20057;-70
2022/03/03 05:58:46;;;;;;;15.15;6.07;;;1.40;99.40;;;1.07;63.26;101240.88;5207368;28;20049;-70
2022/03/03 06:01:19;;;;;;;11.77;5.43;;;1.40;99.20;;;1.09;63.07;101237.63;5207540;28;20512;-71
2022/03/03 06:03:51;;;;;;;18.00;6.05;;;1.40;99.00;;;1.08;62.63;101228.16;5295396;23;20052;-73
2022/03/03 06:06:28;;;;;;;12.27;5.38;;;1.40;98.90;;;1.09;62.39;101239.31;5169084;28;20050;-73
2022/03/03 06:09:05;;;;;;;12.75;6.07;;;1.50;99.10;;;1.10;62.65;101235.97;5185170;28;20056;-72
2022/03/03 06:11:47;;;;;;;16.83;8.50;;;1.50;98.60;;;1.11;61.99;101237.78;5186435;28;20050;-73
2022/03/03 06:14:31;;;;;;;14.88;6.82;;;1.50;98.30;;;1.14;62.36;101232.88;5186672;28;20056;-73
2022/03/03 06:17:04;;;;;;;13.77;6.80;;;1.50;98.30;;;1.19;61.83;101234.16;5186576;28;20409;-73
2022/03/03 06:19:41;;;;;;;13.88;5.80;;;1.50;98.10;;;1.24;61.83;101245.69;5186821;28;20053;-73
2022/03/03 06:22:13;;;;;;;17.05;5.93;;;1.60;98.10;;;1.27;61.87;101245.00;5188617;28;20064;-75
2022/03/03 06:24:45;;;;;;;14.10;6.18;;;1.60;98.20;;;1.29;61.49;101241.78;5185846;28;20133;-73
2022/03/03 06:27:19;;;;;;;14.80;5.93;;;1.60;98.20;;;1.30;62.31;101227.25;5185582;28;20058;-73
2022/03/03 06:29:51;;;;;;;14.68;6.50;;;1.60;98.40;;;1.30;62.59;101234.97;5186112;28;20056;-73
2022/03/03 06:32:23;;;;;;;15.85;6.80;;;1.60;98.70;;;1.33;62.52;101235.22;5186266;28;20075;-73
2022/03/03 06:34:55;;;;;;;11.68;6.15;;;1.60;98.80;;;1.36;62.45;101232.88;5185929;28;20516;-73
2022/03/03 06:37:27;;;;;;;16.73;6.57;;;1.60;99.10;;;1.40;63.17;101236.59;5185681;28;20050;-72
2022/03/03 06:39:59;;;;;;;12.82;5.78;;;1.70;99.40;;;1.45;63.28;101235.28;5188602;28;20057;-73
2022/03/03 06:42:33;;;;;;;12.98;6.35;;;1.70;99.60;;;1.64;63.46;101233.38;5186047;28;20136;-73
2022/03/03 06:45:06;;;;;;;16.67;6.30;;;1.80;99.80;;;1.87;62.92;101243.72;5186085;28;20057;-73
2022/03/03 06:47:38;;;;;;;17.80;6.80;;;2.00;99.70;;;2.19;62.22;101237.56;5185844;28;20135;-73
2022/03/03 06:50:10;;;;;;;22.38;7.38;;;2.20;99.70;;;3.08;67.24;101231.22;5184200;28;20056;-70
2022/03/03 06:52:43;;;;;;;17.08;6.35;;;2.80;99.90;;;3.87;67.04;101226.47;5185604;28;20053;-72
2022/03/03 06:55:21;;;;;;;12.20;6.05;;;3.50;99.90;;;4.16;61.80;101233.56;5186076;28;20050;-73
2022/03/03 06:57:57;;;;;;;19.38;7.45;;;4.00;98.80;;;4.02;58.31;101229.19;5185668;28;20046;-72
2022/03/03 07:00:33;;;;;;;12.98;6.00;;;4.10;94.60;;;3.82;57.76;101232.97;5187785;28;20058;-70
2022/03/03 07:03:06;;;;;;;16.25;7.88;;;4.00;94.00;;;3.69;57.27;101243.25;5186057;28;20454;-71
2022/03/03 07:05:38;;;;;;;17.27;6.18;;;3.90;93.70;;;3.59;57.29;101235.69;5185625;28;20316;-73
2022/03/03 07:08:11;;;;;;;15.95;6.60;;;3.80;93.80;;;3.56;57.50;101238.03;5185868;28;20046;-71
2022/03/03 07:10:45;;;;;;;15.38;6.60;;;3.80;94.00;;;3.57;57.31;101237.22;5179657;28;20051;-72
2022/03/03 07:13:19;;;;;;;14.32;6.20;;;3.70;94.10;;;3.62;57.37;101241.91;5164978;28;20048;-70
2022/03/03 07:15:56;;;;;;;13.80;6.40;;;3.80;94.20;;;3.72;57.55;101244.38;5164968;28;20054;-72
2022/03/03 07:18:36;;;;;;;17.38;7.35;;;3.80;94.20;;;3.95;57.09;101237.28;5165328;28;20054;-71
2022/03/03 07:21:17;;;;;;;14.68;6.65;;;3.90;94.30;;;4.31;56.62;101242.38;5165848;28;20407;-72
2022/03/03 07:24:02;;;;;;;16.65;6.70;;;4.20;94.30;;;4.95;55.68;101231.84;5164770;28;20046;-70
2022/03/03 07:26:35;;;;;;;16.08;6.60;;;4.50;94.20;;;6.24;53.40;101226.97;5162991;28;20046;-71
2022/03/03 07:29:13;;;;;;;12.13;6.35;;;5.30;93.90;;;7.80;49.36;101230.50;5164436;28;20082;-70
2022/03/03 07:31:55;;;;;;;14.40;5.97;;;6.30;91.30;;;9.12;45.72;101238.03;5165543;28;20054;-71
2022/03/03 07:34:33;;;;;;;14.23;6.75;;;7.30;85.10;;;10.59;42.21;101249.88;5164707;28;20043;-72
2022/03/03 07:37:09;;;;;;;15.68;6.95;;;8.60;77.30;;;11.79;39.33;101243.28;5165021;28;20050;-70
2022/03/03 07:39:43;;;;;;;16.38;6.82;;;9.60;70.40;;;12.98;36.87;101237.00;5164912;28;20113;-70
2022/03/03 07:42:17;;;;;;;17.25;6.75;;;10.70;65.60;;;13.98;34.97;101240.03;5165237;28;20082;-72
2022/03/03 07:44:50;;;;;;;14.40;7.10;;;11.60;61.70;;;14.82;32.75;101240.53;5165101;28;20519;-70
2022/03/03 07:47:23;;;;;;;16.85;8.40;;;12.40;58.10;;;15.33;31.33;101247.88;5164955;28;20407;-69
2022/03/03 07:49:56;;;;;;;18.13;6.93;;;13.10;55.50;;;15.43;30.70;101244.56;5164602;28;20108;-70
2022/03/03 07:52:29;;;;;;;18.25;9.05;;;13.40;53.80;;;14.86;30.30;101249.34;5165137;28;20073;-72
2022/03/03 07:55:01;;;;;;;16.80;8.65;;;13.30;51.10;;;14.31;31.07;101264.53;5165135;28;20057;-69
2022/03/03 07:57:36;;;;;;;16.58;8.40;;;13.10;51.70;;;13.40;31.88;101259.28;5164564;28;20513;-71
2022/03/03 08:00:13;;;;;;;14.95;7.28;;;12.50;51.60;;;12.33;33.18;101264.47;5165138;28;20062;-70
2022/03/03 08:02:46;;;;;;;16.67;7.63;;;11.90;52.90;;;11.56;34.68;101262.47;5164813;28;20050;-69
2022/03/03 08:05:18;;;;;;;16.08;7.47;;;11.20;53.50;;;11.02;35.66;101249.94;5165000;28;20129;-71
2022/03/03 08:07:56;;;;;;;16.05;7.00;;;10.70;54.50;;;11.06;35.94;101254.41;5164152;28;20046;-70
2022/03/03 08:10:29;;;;;;;15.20;6.85;;;10.40;55.60;;;12.13;35.36;101262.88;5164532;28;20502;-68
2022/03/03 08:13:02;;;;;;;14.25;6.88;;;10.70;56.60;;;13.57;33.28;101256.34;5164360;28;20050;-68
2022/03/03 08:15:38;;;;;;;13.75;7.18;;;11.40;56.30;;;14.89;31.25;101249.44;5164606;28;20510;-70
2022/03/03 08:18:11;;;;;;;13.27;6.47;;;12.30;54.60;;;15.97;29.93;101267.69;5164335;28;20054;-68
2022/03/03 08:20:43;;;;;;;16.15;7.18;;;13.20;52.90;;;16.45;27.95;101266.84;5164734;28;20471;-69
2022/03/03 08:23:15;;;;;;;14.15;6.97;;;13.80;49.60;;;16.87;27.94;101265.84;5164351;28;20046;-70
2022/03/03 08:25:48;;;;;;;12.82;6.85;;;14.40;49.70;;;17.43;27.30;101272.84;5164151;28;20053;-70
2022/03/03 08:28:23;;;;;;;14.52;7.15;;;15.00;48.90;;;17.88;26.35;101273.50;5164013;28;20046;-69
2022/03/03 08:31:01;;;;;;;12.00;6.45;;;15.50;47.60;;;18.06;25.71;101266.66;5164390;28;20085;-69
2022/03/03 08:33:41;;;;;;;13.45;6.90;;;15.80;46.40;;;18.23;25.75;101258.94;5164312;28;20057;-69
2022/03/03 08:36:24;;;;;;;14.30;7.07;;;16.10;46.00;;;18.44;25.52;101260.06;5165846;28;20050;-69
2022/03/03 08:39:04;;;;;;;12.85;7.00;;;16.30;46.40;;;18.14;24.54;101270.31;5168269;28;20100;-69
2022/03/03 08:41:39;;;;;;;12.90;7.30;;;16.30;43.70;;;18.02;25.42;101268.41;5168658;28;20050;-70
2022/03/03 08:44:13;;;;;;;13.38;6.63;;;16.20;44.60;;;18.22;25.21;101267.75;5168618;28;20039;-70
2022/03/03 08:46:48;;;;;;;14.50;6.95;;;16.40;44.60;;;18.47;25.06;101272.41;5168585;28;20050;-70
2022/03/03 08:49:20;;;;;;;14.25;6.80;;;16.60;44.70;;;18.38;24.79;101267.03;5168024;28;20050;-70
2022/03/03 08:51:52;;;;;;;13.98;7.10;;;16.60;43.80;;;18.39;24.84;101260.91;5167977;28;20050;-70
2022/03/03 08:54:24;;;;;;;14.35;6.93;;;16.70;43.60;;;17.82;24.46;101272.53;5168488;28;20057;-70
2022/03/03 08:56:56;;;;;;;14.55;7.57;;;16.50;42.30;;;17.42;25.33;101264.06;5168365;28;20466;-70
2022/03/03 08:59:28;;;;;;;14.25;7.28;;;16.20;43.40;;;17.52;25.56;101260.69;5167752;28;20050;-70
2022/03/03 09:02:02;;;;;;;14.75;7.50;;;16.30;44.10;;;17.50;25.04;101262.41;5167894;28;20052;-70
2022/03/03 09:04:34;;;;;;;13.98;7.63;;;16.30;43.00;;;17.35;24.97;101267.47;5168116;28;20466;-69
2022/03/03 09:07:06;;;;;;;14.93;7.20;;;16.30;43.00;;;16.36;25.22;101271.91;5167302;28;20064;-71
2022/03/03 09:09:38;;;;;;;14.07;7.15;;;15.80;42.20;;;15.40;26.23;101265.53;5168244;28;20046;-69
2022/03/03 09:12:13;;;;;;;15.65;7.03;;;15.20;42.90;;;14.63;27.51;101272.41;5168135;28;20046;-71
2022/03/03 09:14:45;;;;;;;14.65;6.82;;;14.60;44.00;;;13.67;28.24;101275.81;5168057;28;20046;-68
2022/03/03 09:17:18;;;;;;;14.60;7.07;;;13.90;44.30;;;13.03;29.77;101265.91;5167417;28;20054;-68
2022/03/03 09:19:50;;;;;;;16.17;7.28;;;13.30;45.60;;;12.84;30.07;101260.94;5168218;28;20161;-70
2022/03/03 09:22:22;;;;;;;14.23;6.90;;;13.00;46.60;;;12.96;30.54;101266.56;5167992;28;20054;-70
2022/03/03 09:24:55;;;;;;;18.13;7.28;;;12.90;47.50;;;13.08;30.74;101269.59;5167601;28;20060;-70
2022/03/03 09:27:27;;;;;;;15.82;7.85;;;12.90;47.40;;;12.82;30.54;101253.03;5167077;28;20054;-67
2022/03/03 09:29:59;;;;;;;16.05;7.38;;;12.70;47.20;;;12.60;31.11;101259.28;5167230;28;20439;-70
2022/03/03 09:32:32;;;;;;;16.33;8.43;;;12.60;47.60;;;12.71;31.30;101250.09;5167896;28;20400;-69
2022/03/03 09:35:06;;;;;;;15.82;7.53;;;12.50;48.20;;;12.47;31.67;101259.72;5167446;28;20050;-68
2022/03/03 09:37:39;;;;;;;13.32;7.03;;;12.40;48.30;;;12.52;31.43;101252.91;5167241;28;20058;-68
2022/03/03 09:40:11;;;;;;;15.52;7.28;;;12.40;48.60;;;12.58;31.72;101253.09;5167083;28;20460;-69
2022/03/03 09:42:57;;;;;;;14.65;7.45;;;12.40;48.80;;;12.61;31.69;101239.25;5167534;28;20047;-70
2022/03/03 09:45:30;;;;;;;13.98;6.78;;;12.40;49.20;;;12.71;31.80;101231.78;5167334;28;20057;-69
2022/03/03 09:48:06;;;;;;;16.90;7.65;;;12.40;49.20;;;12.79;31.81;101236.38;5166140;28;20137;-71
2022/03/03 09:50:42;;;;;;;16.05;8.07;;;12.50;49.00;;;12.91;31.77;101228.88;5167178;28;20406;-70
2022/03/03 09:53:18;;;;;;;14.07;7.57;;;12.60;49.20;;;12.98;31.31;101236.13;5167178;28;20407;-70
2022/03/03 09:55:51;;;;;;;17.42;7.40;;;12.60;48.70;;;12.69;31.16;101235.16;5167088;28;20065;-71
2022/03/03 09:58:23;;;;;;;19.45;7.80;;;12.50;48.20;;;12.18;31.94;101230.81;5166744;28;20085;-70
2022/03/03 10:00:57;;;;;;;15.60;8.02;;;12.20;48.60;;;11.91;32.66;101232.44;5167245;28;20404;-70
2022/03/03 10:03:34;;;;;;;14.77;7.05;;;11.90;49.60;;;12.06;33.13;101219.97;5166602;28;20070;-71
2022/03/03 10:06:06;;;;;;;15.02;7.03;;;11.90;50.20;;;12.33;33.18;101219.13;5167106;28;20523;-70
2022/03/03 10:08:38;;;;;;;17.60;7.32;;;12.00;50.60;;;12.56;32.23;101212.94;5166552;28;20052;-71
2022/03/03 10:11:11;;;;;;;16.88;7.72;;;12.20;49.80;;;12.63;32.66;101214.03;5167154;28;20050;-70
2022/03/03 10:13:48;;;;;;;13.75;6.72;;;12.20;50.50;;;12.72;32.35;101212.63;5166256;28;20050;-69
2022/03/03 10:16:24;;;;;;;15.82;7.45;;;12.30;50.10;;;12.60;32.07;101208.72;5166613;28;20515;-69
2022/03/03 10:19:03;;;;;;;12.05;6.47;;;12.30;49.60;;;12.62;33.50;101218.38;5166616;28;20418;-69
2022/03/03 10:21:38;;;;;;;16.42;7.90;;;12.30;51.00;;;12.88;33.20;101215.72;5166502;28;20058;-69
2022/03/03 10:24:19;;;;;;;16.70;7.47;;;12.50;51.00;;;13.01;32.77;101217.88;5166095;28;20050;-69
2022/03/03 10:26:59;;;;;;;14.70;7.43;;;12.60;50.20;;;13.15;32.41;101224.44;5166701;28;20412;-69
2022/03/03 10:29:32;;;;;;;16.95;7.18;;;12.70;50.10;;;13.13;32.29;101217.41;5166650;28;20060;-70
2022/03/03 10:32:05;;;;;;;16.50;7.53;;;12.70;49.80;;;13.13;32.83;101213.03;5166469;28;20046;-69
2022/03/03 10:34:43;;;;;;;14.45;7.30;;;12.70;50.90;;;13.13;32.37;101217.41;5165909;28;20057;-71
2022/03/03 10:37:22;;;;;;;18.35;9.07;;;12.70;49.90;;;13.09;32.07;101216.41;5166201;28;20422;-69
2022/03/03 10:39:59;;;;;;;17.00;7.85;;;12.80;49.70;;;12.87;32.23;101214.84;5166448;28;20047;-70
2022/03/03 10:42:31;;;;;;;18.25;8.32;;;12.60;49.50;;;12.81;32.50;101205.91;5166014;28;20142;-69